createdAt,value
2022-11-19T00:00:08.062Z,8.90
2022-11-19T00:02:36.679Z,8.65
2022-11-19T00:05:03.669Z,7.10
2022-11-19T00:07:30.615Z,7.70
2022-11-19T00:09:57.608Z,7.25
2022-11-19T00:12:42.870Z,7.03
2022-11-19T00:15:09.874Z,6.65
2022-11-19T00:17:36.744Z,6.47
2022-11-19T00:20:04.064Z,6.75
2022-11-19T00:22:30.833Z,7.85
2022-11-19T00:24:57.684Z,6.38
2022-11-19T00:27:24.726Z,7.68
2022-11-19T00:29:51.651Z,7.20
2022-11-19T00:32:18.526Z,7.53
2022-11-19T00:34:45.349Z,8.80
2022-11-19T00:37:12.223Z,8.30
2022-11-19T00:39:39.048Z,7.85
2022-11-19T00:42:05.950Z,7.68
2022-11-19T00:44:37.213Z,7.93
2022-11-19T00:47:04.772Z,7.78
2022-11-19T00:49:31.789Z,8.27
2022-11-19T00:51:58.595Z,9.55
2022-11-19T00:54:25.668Z,10.27
2022-11-19T00:56:52.692Z,8.35
2022-11-19T00:59:19.855Z,10.15
2022-11-19T01:01:46.990Z,10.30
2022-11-19T01:04:14.166Z,11.45
2022-11-19T01:06:41.112Z,11.40
2022-11-19T01:09:07.965Z,8.93
2022-11-19T01:11:36.729Z,10.82
2022-11-19T01:14:05.705Z,11.82
2022-11-19T01:16:35.041Z,11.32
2022-11-19T01:19:02.606Z,12.20
2022-11-19T01:21:31.975Z,12.20
2022-11-19T01:23:59.569Z,12.27
2022-11-19T01:26:27.286Z,11.95
2022-11-19T01:28:54.731Z,11.18
2022-11-19T01:31:27.156Z,12.77
2022-11-19T01:33:55.346Z,11.57
2022-11-19T01:36:27.637Z,12.32
2022-11-19T01:41:32.967Z,11.65
2022-11-19T01:44:02.861Z,11.35
2022-11-19T01:46:35.623Z,12.18
2022-11-19T01:49:18.684Z,11.48
2022-11-19T01:51:48.848Z,13.10
2022-11-19T01:54:28.425Z,10.85
2022-11-19T01:57:00.275Z,12.77
2022-11-19T01:59:30.522Z,11.50
2022-11-19T02:01:57.735Z,10.45
2022-11-19T02:04:25.803Z,11.23
2022-11-19T02:06:54.502Z,11.25
2022-11-19T02:09:21.816Z,10.65
2022-11-19T02:12:22.982Z,10.38
2022-11-19T02:15:25.823Z,9.55
2022-11-19T02:18:18.789Z,9.88
2022-11-19T02:21:03.804Z,9.68
2022-11-19T02:23:44.685Z,9.90
2022-11-19T02:26:12.861Z,9.32
2022-11-19T02:28:51.504Z,8.55
2022-11-19T02:31:36.623Z,6.95
2022-11-19T02:34:16.703Z,6.47
2022-11-19T02:36:43.655Z,6.35
2022-11-19T02:39:39.864Z,5.00
2022-11-19T02:42:21.981Z,4.82
2022-11-19T02:44:59.613Z,3.92
2022-11-19T02:48:00.875Z,3.70
2022-11-19T02:50:55.339Z,3.17
2022-11-19T02:53:23.628Z,2.70
2022-11-19T02:56:09.081Z,2.85
2022-11-19T02:58:59.446Z,2.22
2022-11-19T03:01:48.588Z,2.15
2022-11-19T03:04:32.920Z,1.85
2022-11-19T03:07:13.486Z,2.20
2022-11-19T03:09:44.681Z,1.85
2022-11-19T03:12:17.181Z,2.10
2022-11-19T03:15:15.488Z,1.98
2022-11-19T03:18:03.039Z,2.05
2022-11-19T03:20:41.585Z,2.40
2022-11-19T03:23:19.889Z,2.42
2022-11-19T03:26:04.953Z,2.30
2022-11-19T03:28:36.524Z,1.83
2022-11-19T03:31:06.159Z,2.40
2022-11-19T03:33:37.450Z,2.03
2022-11-19T03:36:14.676Z,2.20
2022-11-19T03:38:49.094Z,2.33
2022-11-19T03:41:18.736Z,2.28
2022-11-19T03:43:51.568Z,2.22
2022-11-19T03:46:21.780Z,2.10
2022-11-19T03:48:52.445Z,1.95
2022-11-19T03:51:30.337Z,1.90
2022-11-19T03:53:57.324Z,1.90
2022-11-19T03:56:26.369Z,1.83
2022-11-19T03:58:54.157Z,1.25
2022-11-19T04:01:22.504Z,1.48
2022-11-19T04:04:07.766Z,1.35
2022-11-19T04:06:34.717Z,1.83
2022-11-19T04:09:01.612Z,2.05
2022-11-19T04:11:28.545Z,1.50
2022-11-19T04:13:55.554Z,1.92
2022-11-19T04:16:22.402Z,1.95
2022-11-19T04:18:49.245Z,1.92
2022-11-19T04:21:16.098Z,1.80
2022-11-19T04:23:42.972Z,1.70
2022-11-19T04:26:09.731Z,1.27
2022-11-19T04:28:36.559Z,2.17
2022-11-19T04:31:03.460Z,1.40
2022-11-19T04:33:30.468Z,1.30
2022-11-19T04:35:57.381Z,1.70
2022-11-19T04:38:24.365Z,1.50
2022-11-19T04:40:51.258Z,1.38
2022-11-19T04:43:18.114Z,1.90
2022-11-19T04:45:44.972Z,1.92
2022-11-19T04:48:11.977Z,1.98
2022-11-19T04:50:39.139Z,2.40
2022-11-19T04:53:06.073Z,2.17
2022-11-19T04:55:33.200Z,2.30
2022-11-19T04:58:00.348Z,2.47
2022-11-19T05:00:27.215Z,2.47
2022-11-19T05:02:54.496Z,2.63
2022-11-19T05:05:21.994Z,2.70
2022-11-19T05:07:48.849Z,2.80
2022-11-19T05:10:15.686Z,2.20
2022-11-19T05:12:42.678Z,2.42
2022-11-19T05:15:10.072Z,2.22
2022-11-19T05:17:37.509Z,2.97
2022-11-19T05:20:04.727Z,3.20
2022-11-19T05:22:33.756Z,2.70
2022-11-19T05:25:00.740Z,2.58
2022-11-19T05:27:27.882Z,2.38
2022-11-19T05:29:54.803Z,2.85
2022-11-19T05:32:22.101Z,3.00
2022-11-19T05:34:49.032Z,2.80
2022-11-19T05:37:15.878Z,3.10
2022-11-19T05:39:42.820Z,3.35
2022-11-19T05:42:09.828Z,2.80
2022-11-19T05:44:36.667Z,2.80
2022-11-19T05:47:03.762Z,2.80
2022-11-19T05:49:35.901Z,3.05
2022-11-19T05:52:02.977Z,3.40
2022-11-19T05:54:29.911Z,3.03
2022-11-19T05:56:57.007Z,3.63
2022-11-19T05:59:24.332Z,2.97
2022-11-19T06:01:52.442Z,3.10
2022-11-19T06:04:19.487Z,4.03
2022-11-19T06:06:46.541Z,4.10
2022-11-19T06:09:13.384Z,4.22
2022-11-19T06:11:50.727Z,4.63
2022-11-19T06:14:22.703Z,4.13
2022-11-19T06:16:55.113Z,4.70
2022-11-19T06:19:22.776Z,4.30
2022-11-19T06:21:50.518Z,4.45
2022-11-19T06:24:18.215Z,4.30
2022-11-19T06:26:45.719Z,4.45
2022-11-19T06:29:17.371Z,4.38
2022-11-19T06:31:45.639Z,4.95
2022-11-19T06:34:12.568Z,4.68
2022-11-19T06:36:44.895Z,4.50
2022-11-19T06:39:17.582Z,4.32
2022-11-19T06:41:44.644Z,4.38
2022-11-19T06:44:11.603Z,4.82
2022-11-19T06:46:41.054Z,4.93
2022-11-19T06:49:15.446Z,4.80
2022-11-19T06:51:45.561Z,5.28
2022-11-19T06:54:13.027Z,4.65
2022-11-19T06:56:39.902Z,4.22
2022-11-19T06:59:10.808Z,3.22
2022-11-19T07:01:40.943Z,5.28
2022-11-19T07:04:07.877Z,5.05
2022-11-19T07:06:35.624Z,4.55
2022-11-19T07:09:02.956Z,5.43
2022-11-19T07:11:32.179Z,4.45
2022-11-19T07:14:00.076Z,4.05
2022-11-19T07:16:32.969Z,4.93
2022-11-19T07:19:01.627Z,4.80
2022-11-19T07:21:30.199Z,6.90
2022-11-19T07:23:59.880Z,5.57
2022-11-19T07:26:32.764Z,4.93
2022-11-19T07:29:05.626Z,4.32
2022-11-19T07:31:33.443Z,4.80
2022-11-19T07:34:00.514Z,3.58
2022-11-19T07:36:27.679Z,4.30
2022-11-19T07:38:54.619Z,3.95
2022-11-19T07:41:42.064Z,3.83
2022-11-19T07:44:11.450Z,6.53
2022-11-19T07:46:38.315Z,5.57
2022-11-19T07:49:08.054Z,3.70
2022-11-19T07:51:34.897Z,3.88
2022-11-19T07:54:03.108Z,3.83
2022-11-19T07:56:30.018Z,3.88
2022-11-19T07:58:59.657Z,3.63
2022-11-19T08:01:27.828Z,3.70
2022-11-19T08:06:36.420Z,3.28
2022-11-19T08:09:06.815Z,4.00
2022-11-19T08:11:33.755Z,3.55
2022-11-19T08:14:03.664Z,3.83
2022-11-19T08:16:51.288Z,4.00
2022-11-19T08:19:19.020Z,3.55
2022-11-19T08:21:47.978Z,4.55
2022-11-19T08:24:18.857Z,4.45
2022-11-19T08:26:47.060Z,5.40
2022-11-19T08:29:16.875Z,4.70
2022-11-19T08:31:49.660Z,4.40
2022-11-19T08:34:19.842Z,5.00
2022-11-19T08:36:50.124Z,5.75
2022-11-19T08:39:23.252Z,8.10
2022-11-19T08:42:11.543Z,7.70
2022-11-19T08:44:38.781Z,6.40
2022-11-19T08:47:21.871Z,7.45
2022-11-19T08:49:54.521Z,6.32
2022-11-19T08:52:23.875Z,5.72
2022-11-19T08:54:54.947Z,5.93
2022-11-19T08:57:22.471Z,5.45
2022-11-19T08:59:49.519Z,8.30
2022-11-19T09:02:16.955Z,7.40
2022-11-19T09:04:44.210Z,6.43
2022-11-19T09:07:18.454Z,6.72
2022-11-19T09:09:46.983Z,5.07
2022-11-19T09:26:26.784Z,5.82
2022-11-19T09:28:53.713Z,7.32
2022-11-19T09:31:23.759Z,7.25
2022-11-19T09:33:54.345Z,7.55
2022-11-19T09:36:27.905Z,6.85
2022-11-19T09:39:03.791Z,7.03
2022-11-19T09:42:07.669Z,6.80
2022-11-19T09:44:41.255Z,7.85
2022-11-19T09:47:26.926Z,7.38
2022-11-19T09:50:30.410Z,7.18
2022-11-19T09:53:14.627Z,6.55
2022-11-19T09:55:45.165Z,7.28
2022-11-19T09:58:25.507Z,7.18
2022-11-19T10:00:58.858Z,7.60
2022-11-19T10:03:33.477Z,7.60
2022-11-19T10:06:16.103Z,8.70
2022-11-19T10:11:44.085Z,7.35
2022-11-19T10:14:19.568Z,7.57
2022-11-19T10:16:49.728Z,7.32
2022-11-19T10:19:54.813Z,7.90
2022-11-19T10:22:37.024Z,7.32
2022-11-19T10:28:05.725Z,7.65
2022-11-19T10:30:36.988Z,5.97
2022-11-19T10:33:22.625Z,5.47
2022-11-19T10:36:04.224Z,5.47
2022-11-19T10:38:48.573Z,5.32
2022-11-19T10:41:39.095Z,5.85
2022-11-19T10:44:44.019Z,5.22
2022-11-19T10:47:19.821Z,5.07
2022-11-19T10:49:58.494Z,5.60
2022-11-19T10:52:28.812Z,5.47
2022-11-19T10:55:35.054Z,5.35
2022-11-19T10:58:19.821Z,5.63
2022-11-19T11:00:52.990Z,7.45
2022-11-19T11:03:31.574Z,6.45
2022-11-19T11:06:06.566Z,7.30
2022-11-19T11:08:50.510Z,7.28
2022-11-19T11:11:51.269Z,7.45
2022-11-19T11:14:42.309Z,7.60
2022-11-19T11:20:18.725Z,7.25
2022-11-19T11:23:25.489Z,7.72
2022-11-19T11:26:05.865Z,7.45
2022-11-19T11:28:34.237Z,7.88
2022-11-19T11:31:07.592Z,8.27
2022-11-19T11:33:37.721Z,7.85
2022-11-19T11:36:17.346Z,9.35
2022-11-19T11:38:49.418Z,8.18
2022-11-19T11:44:25.472Z,7.57
2022-11-19T11:49:55.780Z,8.82
2022-11-19T11:52:39.576Z,8.60
2022-11-19T11:55:15.917Z,9.27
2022-11-19T11:57:56.681Z,9.23
2022-11-19T12:00:32.157Z,9.23
2022-11-19T12:06:18.283Z,8.65
2022-11-19T12:09:20.779Z,10.13
2022-11-19T12:12:08.969Z,10.00
2022-11-19T12:14:51.523Z,9.38
2022-11-19T12:17:49.166Z,9.52
2022-11-19T12:20:20.986Z,9.50
2022-11-19T12:22:57.043Z,9.35
2022-11-19T12:25:43.462Z,9.82
2022-11-19T12:28:44.344Z,9.93
2022-11-19T12:35:02.298Z,10.10
2022-11-19T12:37:47.587Z,8.48
2022-11-19T12:41:04.280Z,9.02
2022-11-19T12:43:52.447Z,9.65
2022-11-19T12:46:49.686Z,9.73
2022-11-19T12:49:25.787Z,8.57
2022-11-19T12:52:17.979Z,9.25
2022-11-19T12:54:47.787Z,8.82
2022-11-19T12:57:44.568Z,7.50
2022-11-19T13:00:23.970Z,5.90
2022-11-19T13:06:18.038Z,6.63
2022-11-19T13:08:59.251Z,6.90
2022-11-19T13:11:45.621Z,7.13
2022-11-19T13:14:30.393Z,7.60
2022-11-19T13:19:46.221Z,8.35
2022-11-19T13:22:26.229Z,8.88
2022-11-19T13:25:16.026Z,8.93
2022-11-19T13:27:45.181Z,10.40
2022-11-19T13:30:22.474Z,10.57
2022-11-19T13:33:15.282Z,10.40
2022-11-19T13:36:10.528Z,13.45
2022-11-19T13:38:45.605Z,12.45
2022-11-19T13:41:27.121Z,12.32
2022-11-19T13:44:16.431Z,12.88
2022-11-19T13:47:11.297Z,13.02
2022-11-19T13:49:46.751Z,12.77
2022-11-19T13:52:19.574Z,14.43
2022-11-19T13:54:46.654Z,14.40
2022-11-19T13:57:30.815Z,12.55
2022-11-19T14:00:07.927Z,13.85
2022-11-19T14:02:56.579Z,13.90
2022-11-19T14:05:32.169Z,15.05
2022-11-19T14:08:18.325Z,12.48
2022-11-19T14:11:20.706Z,13.32
2022-11-19T14:14:08.504Z,13.85
2022-11-19T14:17:12.622Z,12.45
2022-11-19T14:20:14.162Z,15.40
2022-11-19T14:23:13.167Z,12.88
2022-11-19T14:26:12.879Z,13.70
2022-11-19T14:28:53.380Z,13.43
2022-11-19T14:31:21.794Z,14.13
2022-11-19T14:33:52.310Z,12.75
2022-11-19T14:36:41.851Z,13.75
2022-11-19T14:39:33.916Z,15.35
2022-11-19T14:42:23.732Z,13.95
2022-11-19T14:45:03.252Z,11.93
2022-11-19T14:47:44.117Z,11.75
2022-11-19T14:50:26.768Z,12.63
2022-11-19T14:52:59.378Z,20.83
2022-11-19T14:55:31.161Z,16.25
2022-11-19T14:58:02.354Z,14.25
2022-11-19T15:00:43.192Z,14.77
2022-11-19T15:03:24.219Z,11.05
2022-11-19T15:05:51.917Z,15.18
2022-11-19T15:08:18.648Z,20.42
2022-11-19T15:11:01.993Z,15.02
2022-11-19T15:13:33.361Z,13.80
2022-11-19T15:16:12.890Z,20.88
2022-11-19T15:18:42.772Z,14.98
2022-11-19T15:21:22.879Z,14.00
2022-11-19T15:24:10.094Z,14.85
2022-11-19T15:26:52.591Z,16.70
2022-11-19T15:29:28.369Z,15.60
2022-11-19T15:31:55.312Z,16.38
2022-11-19T15:35:04.400Z,17.67
2022-11-19T15:37:49.564Z,16.90
2022-11-19T15:40:22.240Z,17.33
2022-11-19T15:43:15.542Z,15.82
2022-11-19T15:46:04.839Z,16.10
2022-11-19T15:48:31.558Z,16.20
2022-11-19T15:51:00.472Z,17.10
2022-11-19T15:53:28.306Z,16.02
2022-11-19T15:55:55.692Z,17.08
2022-11-19T15:58:52.490Z,16.20
2022-11-19T16:01:21.313Z,11.93
2022-11-19T16:03:51.662Z,11.50
2022-11-19T16:06:25.750Z,11.55
2022-11-19T16:08:58.213Z,11.63
2022-11-19T16:11:48.176Z,11.48
2022-11-19T16:14:43.535Z,11.23
2022-11-19T16:17:39.877Z,10.38
2022-11-19T16:20:12.788Z,9.68
2022-11-19T16:22:42.644Z,9.38
2022-11-19T16:25:34.411Z,10.82
2022-11-19T16:28:08.567Z,7.07
2022-11-19T16:30:46.525Z,7.40
2022-11-19T16:33:34.221Z,7.75
2022-11-19T16:36:20.531Z,7.90
2022-11-19T16:38:51.627Z,10.40
2022-11-19T16:41:43.334Z,14.98
2022-11-19T16:44:13.863Z,10.40
2022-11-19T16:46:41.006Z,9.60
2022-11-19T16:49:30.160Z,8.02
2022-11-19T16:51:58.147Z,10.05
2022-11-19T16:54:48.749Z,9.02
2022-11-19T16:57:24.317Z,6.78
2022-11-19T16:59:54.778Z,7.30
2022-11-19T17:02:28.443Z,7.93
2022-11-19T17:05:07.016Z,10.55
2022-11-19T17:07:35.512Z,10.45
2022-11-19T17:10:34.213Z,10.57
2022-11-19T17:13:20.395Z,7.63
2022-11-19T17:15:49.584Z,7.75
2022-11-19T17:18:26.477Z,8.07
2022-11-19T17:20:58.573Z,8.18
2022-11-19T17:23:29.086Z,7.82
2022-11-19T17:26:04.847Z,9.05
2022-11-19T17:28:41.036Z,9.30
2022-11-19T17:31:19.655Z,8.27
2022-11-19T17:33:52.596Z,8.32
2022-11-19T17:36:19.851Z,6.95
2022-11-19T17:38:46.718Z,11.68
2022-11-19T17:41:16.650Z,12.52
2022-11-19T17:44:01.985Z,11.02
2022-11-19T17:46:30.378Z,21.50
2022-11-19T17:48:57.251Z,8.75
2022-11-19T17:51:25.996Z,7.32
2022-11-19T17:53:53.247Z,9.35
2022-11-19T17:56:26.956Z,9.07
2022-11-19T17:58:54.787Z,7.68
2022-11-19T18:01:22.754Z,10.23
2022-11-19T18:03:49.828Z,12.02
2022-11-19T18:06:18.324Z,12.13
2022-11-19T18:08:47.930Z,13.23
2022-11-19T18:11:18.368Z,9.70
2022-11-19T18:13:48.069Z,9.48
2022-11-19T18:16:17.740Z,9.00
2022-11-19T18:18:45.169Z,9.02
2022-11-19T18:21:13.623Z,8.75
2022-11-19T18:23:41.937Z,9.43
2022-11-19T18:26:15.003Z,8.48
2022-11-19T18:28:45.061Z,10.70
2022-11-19T18:31:27.199Z,10.85
2022-11-19T18:33:55.478Z,9.57
2022-11-19T18:36:23.944Z,8.85
2022-11-19T18:38:52.899Z,9.18
2022-11-19T18:41:19.882Z,11.25
2022-11-19T18:44:06.404Z,12.40
2022-11-19T18:46:40.050Z,13.02
2022-11-19T18:49:07.205Z,14.55
2022-11-19T18:51:36.396Z,16.33
2022-11-19T18:54:03.391Z,13.98
2022-11-19T18:56:30.385Z,12.23
2022-11-19T18:59:00.443Z,13.07
2022-11-19T19:01:31.387Z,13.63
2022-11-19T19:03:58.728Z,18.60
2022-11-19T19:06:25.724Z,12.30
2022-11-19T19:08:52.667Z,11.38
2022-11-19T19:11:39.435Z,10.70
2022-11-19T19:14:06.608Z,9.43
2022-11-19T19:16:34.753Z,14.43
2022-11-19T19:19:03.618Z,12.57
2022-11-19T19:21:31.723Z,13.35
2022-11-19T19:23:58.713Z,13.23
2022-11-19T19:26:26.425Z,10.73
2022-11-19T19:28:54.678Z,11.15
2022-11-19T19:31:23.206Z,8.80
2022-11-19T19:33:50.706Z,9.65
2022-11-19T19:36:19.388Z,9.57
2022-11-19T19:38:46.339Z,10.27
2022-11-19T19:41:15.684Z,10.68
2022-11-19T19:48:53.723Z,9.10
2022-11-19T19:51:23.070Z,7.88
2022-11-19T19:53:51.151Z,8.05
2022-11-19T19:56:30.859Z,7.72
2022-11-19T19:58:58.826Z,7.38
2022-11-19T20:01:37.197Z,7.43
2022-11-19T20:04:07.064Z,6.70
2022-11-19T20:06:35.334Z,5.53
2022-11-19T20:09:08.768Z,6.70
2022-11-19T20:11:38.090Z,6.10
2022-11-19T20:14:05.839Z,7.20
2022-11-19T20:16:34.251Z,7.70
2022-11-19T20:19:02.068Z,6.90
2022-11-19T20:21:42.926Z,6.97
2022-11-19T20:24:12.847Z,7.43
2022-11-19T20:26:41.382Z,6.90
2022-11-19T20:29:11.761Z,6.80
2022-11-19T20:31:38.735Z,7.53
2022-11-19T20:34:06.058Z,8.65
2022-11-19T20:36:34.713Z,9.07
2022-11-19T20:39:03.124Z,8.57
2022-11-19T20:41:48.384Z,11.98
2022-11-19T20:44:20.954Z,13.18
2022-11-19T20:46:49.202Z,14.48
2022-11-19T20:49:17.332Z,11.43
2022-11-19T20:51:45.730Z,8.10
2022-11-19T20:54:13.375Z,8.82
2022-11-19T20:56:40.867Z,8.32
2022-11-19T20:59:08.287Z,9.10
2022-11-19T21:01:37.904Z,7.50
2022-11-19T21:04:05.809Z,8.48
2022-11-19T21:06:33.782Z,7.80
2022-11-19T21:09:00.829Z,7.82
2022-11-19T21:11:27.881Z,7.25
2022-11-19T21:13:55.427Z,7.13
2022-11-19T21:16:24.916Z,8.13
2022-11-19T21:18:52.470Z,7.25
2022-11-19T21:21:21.622Z,9.35
2022-11-19T21:23:48.538Z,10.40
2022-11-19T21:26:24.362Z,8.13
2022-11-19T21:28:54.551Z,8.90
2022-11-19T21:31:37.832Z,7.93
2022-11-19T21:34:06.980Z,9.95
2022-11-19T21:36:33.886Z,9.40
2022-11-19T21:39:01.472Z,9.45
2022-11-19T21:41:28.449Z,9.18
2022-11-19T21:43:55.385Z,11.80
2022-11-19T21:46:22.341Z,13.02
2022-11-19T21:48:49.212Z,9.02
2022-11-19T21:51:20.106Z,13.02
2022-11-19T21:54:15.940Z,9.48
2022-11-19T21:56:45.054Z,7.82
2022-11-19T22:02:26.538Z,13.80
2022-11-19T22:13:44.323Z,5.70
2022-11-19T22:16:11.301Z,8.57
2022-11-19T22:18:40.213Z,5.60
2022-11-19T22:21:07.029Z,5.32
2022-11-19T22:23:33.803Z,5.07
2022-11-19T22:26:05.356Z,4.72
2022-11-19T22:28:32.258Z,5.20
2022-11-19T22:31:00.530Z,4.78
2022-11-19T22:33:34.304Z,5.72
2022-11-19T22:36:09.199Z,5.13
2022-11-19T22:38:42.322Z,5.43
2022-11-19T22:41:14.743Z,5.22
2022-11-19T22:43:42.784Z,5.47
2022-11-19T22:46:10.872Z,5.25
2022-11-19T22:48:38.104Z,6.32
2022-11-19T22:51:11.083Z,5.60
2022-11-19T22:53:38.333Z,5.28
2022-11-19T22:56:08.485Z,4.65
2022-11-19T22:58:40.561Z,5.20
2022-11-19T23:01:16.554Z,6.03
2022-11-19T23:03:43.820Z,4.57
2022-11-19T23:06:10.597Z,4.32
2022-11-19T23:08:37.725Z,4.93
2022-11-19T23:11:06.492Z,5.18
2022-11-19T23:13:35.801Z,5.47
2022-11-19T23:16:10.978Z,4.15
2022-11-19T23:18:46.365Z,4.47
2022-11-19T23:21:18.790Z,5.10
2022-11-19T23:23:46.376Z,5.40
2022-11-19T23:26:15.817Z,5.03
2022-11-19T23:28:43.003Z,5.10
2022-11-19T23:31:15.718Z,4.30
2022-11-19T23:33:42.921Z,4.38
2022-11-19T23:36:22.511Z,4.22
2022-11-19T23:38:50.060Z,4.20
2022-11-19T23:41:18.185Z,4.82
2022-11-19T23:43:45.580Z,3.70
2022-11-19T23:46:14.211Z,4.47
2022-11-19T23:48:43.082Z,4.50
2022-11-19T23:51:12.314Z,4.57
2022-11-19T23:53:45.454Z,4.40
2022-11-19T23:56:13.713Z,4.10
2022-11-19T23:58:41.059Z,4.60
